createdAt,value
2022-10-28T00:02:16.793Z,101944.97
2022-10-28T00:04:45.371Z,101933.06
2022-10-28T00:07:14.056Z,101939.56
2022-10-28T00:09:45.668Z,101931.09
2022-10-28T00:12:16.129Z,101924.72
2022-10-28T00:14:46.442Z,101928.31
2022-10-28T00:17:16.838Z,101924.38
2022-10-28T00:19:46.243Z,101926.56
2022-10-28T00:22:15.803Z,101931.75
2022-10-28T00:24:44.468Z,101921.88
2022-10-28T00:27:12.809Z,101916.13
2022-10-28T00:29:41.523Z,101912.25
2022-10-28T00:32:10.416Z,101918.44
2022-10-28T00:34:40.324Z,101901.06
2022-10-28T00:37:09.833Z,101908.09
2022-10-28T00:39:38.469Z,101919.75
2022-10-28T00:42:08.970Z,101918.72
2022-10-28T00:44:59.458Z,101916.34
2022-10-28T00:47:55.750Z,101915.91
2022-10-28T00:50:48.446Z,101894.47
2022-10-28T00:53:23.870Z,101903.88
2022-10-28T00:55:55.353Z,101897.72
2022-10-28T00:58:30.503Z,101895.56
2022-10-28T01:00:59.333Z,101902.47
2022-10-28T01:03:28.335Z,101893.81
2022-10-28T01:06:01.075Z,101897.94
2022-10-28T01:08:29.788Z,101894.69
2022-10-28T01:11:22.814Z,101882.66
2022-10-28T01:14:11.511Z,101893.19
2022-10-28T01:16:57.343Z,101902.06
2022-10-28T01:20:10.173Z,101900.31
2022-10-28T01:22:50.731Z,101882.06
2022-10-28T01:26:04.129Z,101897.59
2022-10-28T01:29:02.377Z,101893.59
2022-10-28T01:31:43.827Z,101879.72
2022-10-28T01:34:24.598Z,101886.25
2022-10-28T01:37:02.359Z,101880.16
2022-10-28T01:39:41.250Z,101882.09
2022-10-28T01:42:23.774Z,101888.41
2022-10-28T01:45:03.195Z,101882.97
2022-10-28T01:47:42.223Z,101882.09
2022-10-28T01:50:16.985Z,101880.28
2022-10-28T01:52:48.828Z,101884.53
2022-10-28T01:55:23.034Z,101876.47
2022-10-28T01:57:54.664Z,101869.78
2022-10-28T02:00:23.169Z,101865.22
2022-10-28T02:02:58.851Z,101857.78
2022-10-28T02:05:44.529Z,101866.78
2022-10-28T02:08:55.571Z,101861.00
2022-10-28T02:11:54.497Z,101854.72
2022-10-28T02:14:41.702Z,101848.69
2022-10-28T02:17:22.671Z,101855.94
2022-10-28T02:20:05.850Z,101846.06
2022-10-28T02:22:44.601Z,101849.50
2022-10-28T02:25:20.422Z,101842.41
2022-10-28T02:27:55.145Z,101848.56
2022-10-28T02:30:30.340Z,101836.97
2022-10-28T02:33:02.930Z,101834.25
2022-10-28T02:35:42.542Z,101831.25
2022-10-28T02:38:17.063Z,101835.56
2022-10-28T02:43:24.359Z,101834.66
2022-10-28T02:45:58.221Z,101830.03
2022-10-28T02:48:33.950Z,101813.25
2022-10-28T02:51:11.158Z,101814.66
2022-10-28T02:53:54.353Z,101827.19
2022-10-28T02:56:30.697Z,101827.88
2022-10-28T02:59:00.733Z,101819.66
2022-10-28T03:01:35.777Z,101823.34
2022-10-28T03:04:06.645Z,101824.88
2022-10-28T03:06:37.541Z,101815.31
2022-10-28T03:09:08.206Z,101815.22
2022-10-28T03:11:37.044Z,101817.28
2022-10-28T03:14:09.605Z,101825.69
2022-10-28T03:16:40.683Z,101825.59
2022-10-28T03:21:41.933Z,101810.34
2022-10-28T03:24:11.038Z,101818.34
2022-10-28T03:26:40.196Z,101821.78
2022-10-28T03:29:09.214Z,101811.56
2022-10-28T03:31:37.699Z,101809.09
2022-10-28T03:34:08.061Z,101821.00
2022-10-28T03:36:37.400Z,101816.84
2022-10-28T03:39:07.831Z,101813.69
2022-10-28T03:41:38.005Z,101811.44
2022-10-28T03:44:08.879Z,101798.41
2022-10-28T03:46:38.446Z,101802.13
2022-10-28T03:49:09.942Z,101792.28
2022-10-28T03:51:38.972Z,101787.13
2022-10-28T03:54:09.360Z,101778.09
2022-10-28T03:56:45.559Z,101782.34
2022-10-28T03:59:19.263Z,101785.00
2022-10-28T04:01:49.191Z,101778.97
2022-10-28T04:04:17.741Z,101772.44
2022-10-28T04:06:46.516Z,101784.78
2022-10-28T04:09:16.843Z,101780.38
2022-10-28T04:11:46.541Z,101788.47
2022-10-28T04:14:15.833Z,101775.63
2022-10-28T04:16:44.215Z,101780.47
2022-10-28T04:19:12.814Z,101770.53
2022-10-28T04:21:42.415Z,101770.88
2022-10-28T04:24:11.283Z,101766.88
2022-10-28T04:26:42.808Z,101774.06
2022-10-28T04:29:12.893Z,101779.94
2022-10-28T04:31:41.745Z,101782.63
2022-10-28T04:34:11.255Z,101801.88
2022-10-28T04:36:40.149Z,101796.41
2022-10-28T04:39:12.106Z,101784.72
2022-10-28T04:41:43.445Z,101787.13
2022-10-28T04:44:14.603Z,101783.56
2022-10-28T04:46:45.139Z,101781.84
2022-10-28T04:49:19.852Z,101784.63
2022-10-28T04:51:50.687Z,101793.09
2022-10-28T04:54:19.913Z,101773.91
2022-10-28T04:56:51.229Z,101787.31
2022-10-28T04:59:21.301Z,101772.88
2022-10-28T05:01:50.482Z,101761.81
2022-10-28T05:04:19.124Z,101763.34
2022-10-28T05:06:49.150Z,101750.50
2022-10-28T05:09:22.299Z,101766.34
2022-10-28T05:11:54.388Z,101771.09
2022-10-28T05:14:25.025Z,101769.28
2022-10-28T05:16:53.779Z,101771.06
2022-10-28T05:19:22.595Z,101775.19
2022-10-28T05:21:51.585Z,101751.22
2022-10-28T05:24:21.617Z,101773.16
2022-10-28T05:26:52.393Z,101759.91
2022-10-28T05:29:24.534Z,101764.50
2022-10-28T05:31:53.821Z,101752.97
2022-10-28T05:34:23.538Z,101762.63
2022-10-28T05:36:52.725Z,101766.81
2022-10-28T05:39:22.044Z,101757.47
2022-10-28T05:41:52.680Z,101755.31
2022-10-28T05:44:22.566Z,101751.63
2022-10-28T05:46:51.817Z,101745.53
2022-10-28T05:49:20.570Z,101740.16
2022-10-28T05:51:49.416Z,101754.25
2022-10-28T05:54:21.315Z,101760.94
2022-10-28T05:56:54.994Z,101764.19
2022-10-28T05:59:25.216Z,101760.38
2022-10-28T06:01:55.156Z,101745.31
2022-10-28T06:04:25.519Z,101755.81
2022-10-28T06:06:57.401Z,101751.66
2022-10-28T06:09:30.623Z,101768.25
2022-10-28T06:12:00.206Z,101765.72
2022-10-28T06:14:29.869Z,101753.06
2022-10-28T06:17:01.812Z,101752.47
2022-10-28T06:19:30.667Z,101783.75
2022-10-28T06:21:59.680Z,101788.19
2022-10-28T06:24:29.539Z,101761.28
2022-10-28T06:27:00.075Z,101755.28
2022-10-28T06:29:32.952Z,101762.03
2022-10-28T06:32:02.622Z,101767.66
2022-10-28T06:34:30.915Z,101772.06
2022-10-28T06:37:02.362Z,101783.25
2022-10-28T06:45:07.023Z,101762.03
2022-10-28T06:47:41.521Z,101775.38
2022-10-28T06:50:11.945Z,101793.59
2022-10-28T06:52:42.614Z,101781.44
2022-10-28T06:55:25.125Z,101785.69
2022-10-28T06:58:18.442Z,101785.47
2022-10-28T07:00:47.292Z,101769.25
2022-10-28T07:03:16.353Z,101786.84
2022-10-28T07:05:45.537Z,101778.50
2022-10-28T07:08:16.532Z,101785.84
2022-10-28T07:10:47.207Z,101777.19
2022-10-28T07:13:19.211Z,101777.56
2022-10-28T07:15:53.132Z,101771.34
2022-10-28T07:18:22.687Z,101781.00
2022-10-28T07:20:52.427Z,101777.78
2022-10-28T07:23:24.481Z,101791.34
2022-10-28T07:25:58.398Z,101770.91
2022-10-28T07:28:29.465Z,101764.53
2022-10-28T07:31:04.254Z,101773.47
2022-10-28T07:33:34.164Z,101763.91
2022-10-28T07:36:05.156Z,101769.88
2022-10-28T07:38:34.735Z,101780.59
2022-10-28T07:41:08.103Z,101789.13
2022-10-28T07:43:39.979Z,101772.78
2022-10-28T07:46:09.872Z,101770.38
2022-10-28T07:48:40.155Z,101776.06
2022-10-28T07:51:13.446Z,101787.59
2022-10-28T07:53:43.133Z,101790.03
2022-10-28T07:56:14.835Z,101778.38
2022-10-28T07:58:47.826Z,101779.03
2022-10-28T08:01:20.797Z,101763.97
2022-10-28T08:03:52.530Z,101754.72
2022-10-28T08:06:24.997Z,101755.94
2022-10-28T08:09:03.135Z,101757.53
2022-10-28T08:11:32.852Z,101760.69
2022-10-28T08:14:11.773Z,101753.34
2022-10-28T08:16:40.452Z,101763.88
2022-10-28T08:19:10.202Z,101748.91
2022-10-28T08:21:40.044Z,101761.84
2022-10-28T08:24:10.748Z,101789.03
2022-10-28T08:26:39.901Z,101763.53
2022-10-28T08:29:13.076Z,101759.09
2022-10-28T08:31:43.044Z,101764.66
2022-10-28T08:34:13.436Z,101765.50
2022-10-28T08:36:42.417Z,101778.84
2022-10-28T08:39:11.236Z,101768.63
2022-10-28T08:41:48.157Z,101767.38
2022-10-28T08:44:58.364Z,101760.09
2022-10-28T08:47:49.546Z,101757.63
2022-10-28T08:50:22.676Z,101758.63
2022-10-28T08:52:58.688Z,101757.25
2022-10-28T08:55:36.005Z,101753.91
2022-10-28T08:58:12.195Z,101754.91
2022-10-28T09:00:46.471Z,101743.38
2022-10-28T09:03:22.483Z,101739.38
2022-10-28T09:06:04.428Z,101733.94
2022-10-28T09:08:38.747Z,101737.88
2022-10-28T09:11:37.973Z,101733.41
2022-10-28T09:14:33.462Z,101730.91
2022-10-28T09:17:15.785Z,101731.72
2022-10-28T09:19:52.869Z,101730.69
2022-10-28T09:22:35.903Z,101735.50
2022-10-28T09:25:24.597Z,101730.16
2022-10-28T09:28:12.155Z,101736.00
2022-10-28T09:30:59.781Z,101723.28
2022-10-28T09:34:02.119Z,101730.41
2022-10-28T09:36:40.758Z,101723.31
2022-10-28T09:39:26.789Z,101717.09
2022-10-28T09:42:01.465Z,101709.22
2022-10-28T09:44:46.572Z,101713.97
2022-10-28T09:47:21.364Z,101721.88
2022-10-28T09:49:57.710Z,101718.56
2022-10-28T09:52:36.474Z,101720.00
2022-10-28T09:55:20.504Z,101713.78
2022-10-28T09:57:52.527Z,101702.69
2022-10-28T10:00:22.783Z,101714.47
2022-10-28T10:02:57.695Z,101720.09
2022-10-28T10:05:33.152Z,101706.19
2022-10-28T10:08:08.103Z,101709.09
2022-10-28T10:10:48.529Z,101707.69
2022-10-28T10:13:22.097Z,101697.66
2022-10-28T10:15:56.892Z,101699.59
2022-10-28T10:18:33.023Z,101683.41
2022-10-28T10:21:07.032Z,101679.28
2022-10-28T10:26:12.429Z,101683.13
2022-10-28T10:28:47.904Z,101672.06
2022-10-28T10:31:23.706Z,101680.59
2022-10-28T10:33:57.947Z,101681.00
2022-10-28T10:36:31.727Z,101680.25
2022-10-28T10:39:04.304Z,101673.16
2022-10-28T10:41:38.095Z,101658.66
2022-10-28T10:44:33.639Z,101638.56
2022-10-28T10:47:23.168Z,101649.34
2022-10-28T10:49:56.921Z,101653.91
2022-10-28T10:52:29.785Z,101664.72
2022-10-28T10:55:10.120Z,101659.59
2022-10-28T10:57:49.174Z,101656.84
2022-10-28T11:00:23.420Z,101663.31
2022-10-28T11:02:56.357Z,101663.00
2022-10-28T11:05:32.252Z,101674.63
2022-10-28T11:08:18.764Z,101677.22
2022-10-28T11:11:10.948Z,101666.41
2022-10-28T11:13:46.400Z,101666.50
2022-10-28T11:16:26.067Z,101663.03
2022-10-28T11:19:01.906Z,101667.09
2022-10-28T11:22:16.072Z,101665.94
2022-10-28T11:25:28.778Z,101659.00
2022-10-28T11:28:47.639Z,101672.34
2022-10-28T11:31:44.960Z,101664.94
2022-10-28T11:35:01.597Z,101660.13
2022-10-28T11:37:51.064Z,101657.25
2022-10-28T11:40:38.012Z,101652.94
2022-10-28T11:43:32.297Z,101655.22
2022-10-28T11:46:14.130Z,101647.72
2022-10-28T11:52:09.822Z,101663.41
2022-10-28T11:55:03.808Z,101681.16
2022-10-28T11:58:09.086Z,101673.19
2022-10-28T12:01:04.140Z,101671.66
2022-10-28T12:03:57.986Z,101676.56
2022-10-28T12:07:06.308Z,101678.19
2022-10-28T12:10:01.180Z,101678.88
2022-10-28T12:12:47.287Z,101661.09
2022-10-28T12:15:34.920Z,101664.19
2022-10-28T12:18:16.715Z,101663.81
2022-10-28T12:20:55.300Z,101671.69
2022-10-28T12:23:28.032Z,101675.88
2022-10-28T12:26:09.180Z,101664.16
2022-10-28T12:28:48.152Z,101674.13
2022-10-28T12:31:25.785Z,101692.25
2022-10-28T12:34:21.747Z,101685.78
2022-10-28T12:37:03.671Z,101687.66
2022-10-28T12:39:49.738Z,101684.94
2022-10-28T12:42:29.877Z,101694.56
2022-10-28T12:45:07.762Z,101694.66
2022-10-28T12:47:44.339Z,101702.59
2022-10-28T12:50:26.790Z,101707.28
2022-10-28T12:53:25.019Z,101719.59
2022-10-28T12:56:01.956Z,101709.53
2022-10-28T12:58:37.034Z,101700.47
2022-10-28T13:01:16.558Z,101693.72
2022-10-28T13:03:48.653Z,101704.41
2022-10-28T13:06:47.851Z,101716.63
2022-10-28T13:09:54.017Z,101718.84
2022-10-28T13:13:12.481Z,101720.25
2022-10-28T13:16:23.736Z,101720.72
2022-10-28T13:19:30.225Z,101724.59
2022-10-28T13:22:29.000Z,101736.06
2022-10-28T13:25:10.791Z,101736.47
2022-10-28T13:27:40.170Z,101741.16
2022-10-28T13:30:20.166Z,101745.38
2022-10-28T13:33:01.730Z,101750.59
2022-10-28T13:35:32.744Z,101744.34
2022-10-28T13:38:02.893Z,101744.44
2022-10-28T13:41:13.400Z,101746.75
2022-10-28T13:44:32.094Z,101740.19
2022-10-28T13:47:27.497Z,101738.66
2022-10-28T13:50:42.093Z,101734.13
2022-10-28T13:53:59.609Z,101731.69
2022-10-28T13:56:50.852Z,101738.00
2022-10-28T13:59:31.373Z,101741.94
2022-10-28T14:02:33.141Z,101751.03
2022-10-28T14:05:02.143Z,101749.91
2022-10-28T14:07:35.615Z,101759.00
2022-10-28T14:10:24.920Z,101760.25
2022-10-28T14:13:04.853Z,101762.84
2022-10-28T14:15:41.023Z,101764.28
2022-10-28T14:21:29.921Z,101753.66
2022-10-28T14:24:40.234Z,101761.38
2022-10-28T14:27:44.055Z,101767.81
2022-10-28T14:30:33.330Z,101778.66
2022-10-28T14:33:24.485Z,101772.94
2022-10-28T14:36:34.496Z,101769.28
2022-10-28T14:39:45.904Z,101773.16
2022-10-28T14:42:42.975Z,101782.94
2022-10-28T14:49:13.951Z,101789.41
2022-10-28T14:51:46.297Z,101798.31
2022-10-28T14:54:24.407Z,101802.75
2022-10-28T14:56:59.651Z,101811.00
2022-10-28T14:59:33.832Z,101801.97
2022-10-28T15:02:14.551Z,101811.72
2022-10-28T15:05:15.132Z,101811.16
2022-10-28T15:07:45.741Z,101818.78
2022-10-28T15:10:34.845Z,101819.47
2022-10-28T15:13:07.533Z,101809.44
2022-10-28T15:15:37.879Z,101814.75
2022-10-28T15:18:23.918Z,101807.44
2022-10-28T15:21:10.965Z,101821.50
2022-10-28T15:23:41.868Z,101828.13
2022-10-28T15:26:17.727Z,101826.81
2022-10-28T15:28:48.424Z,101832.69
2022-10-28T15:31:39.893Z,101840.69
2022-10-28T15:34:24.857Z,101847.25
2022-10-28T15:36:54.913Z,101845.66
2022-10-28T15:39:27.002Z,101855.00
2022-10-28T15:42:03.314Z,101857.31
2022-10-28T15:44:39.701Z,101857.13
2022-10-28T15:47:29.728Z,101863.81
2022-10-28T15:50:26.877Z,101865.38
2022-10-28T15:53:18.999Z,101863.00
2022-10-28T15:56:06.670Z,101870.59
2022-10-28T15:58:40.422Z,101871.44
2022-10-28T16:07:48.048Z,101895.75
2022-10-28T16:10:17.491Z,101900.44
2022-10-28T16:15:51.024Z,101896.38
2022-10-28T16:18:23.055Z,101901.63
2022-10-28T16:20:52.606Z,101912.44
2022-10-28T16:23:25.085Z,101925.91
2022-10-28T16:25:58.850Z,101930.84
2022-10-28T16:28:28.769Z,101936.38
2022-10-28T16:31:00.556Z,101938.59
2022-10-28T16:33:34.296Z,101942.47
2022-10-28T16:36:04.029Z,101945.88
2022-10-28T16:38:32.692Z,101957.94
2022-10-28T16:41:02.801Z,101956.47
2022-10-28T16:43:33.196Z,101960.50
2022-10-28T16:46:03.057Z,101972.94
2022-10-28T16:48:33.189Z,101979.97
2022-10-28T16:51:10.354Z,101981.97
2022-10-28T16:53:39.056Z,101986.31
2022-10-28T16:56:13.741Z,101984.81
2022-10-28T16:58:46.553Z,101985.28
2022-10-28T17:01:28.353Z,101990.13
2022-10-28T17:04:42.086Z,101991.97
2022-10-28T17:07:16.395Z,101996.69
2022-10-28T17:09:45.433Z,102004.84
2022-10-28T17:12:18.262Z,102005.59
2022-10-28T17:14:47.462Z,102008.47
2022-10-28T17:17:16.155Z,102014.00
2022-10-28T17:19:46.710Z,102014.28
2022-10-28T17:22:17.822Z,102013.25
2022-10-28T17:24:46.531Z,102017.09
2022-10-28T17:27:15.191Z,102012.72
2022-10-28T17:29:44.218Z,102004.13
2022-10-28T17:32:14.256Z,102015.72
2022-10-28T17:34:43.628Z,102019.69
2022-10-28T17:37:13.829Z,102009.91
2022-10-28T17:39:45.290Z,102012.97
2022-10-28T17:42:14.395Z,102023.59
2022-10-28T17:44:44.920Z,102027.94
2022-10-28T17:47:16.067Z,102035.34
2022-10-28T17:49:47.880Z,102034.66
2022-10-28T17:52:17.327Z,102042.09
2022-10-28T17:55:11.790Z,102043.91
2022-10-28T17:57:40.905Z,102037.56
2022-10-28T18:00:12.424Z,102038.09
2022-10-28T18:02:41.388Z,102050.06
2022-10-28T18:05:12.579Z,102051.47
2022-10-28T18:07:42.447Z,102056.84
2022-10-28T18:10:14.341Z,102058.13
2022-10-28T18:12:47.901Z,102072.06
2022-10-28T18:15:18.986Z,102068.34
2022-10-28T18:17:52.211Z,102065.63
2022-10-28T18:20:21.635Z,102067.09
2022-10-28T18:22:51.513Z,102063.06
2022-10-28T18:25:25.232Z,102075.31
2022-10-28T18:28:00.329Z,102088.41
2022-10-28T18:30:29.743Z,102096.03
2022-10-28T18:33:00.813Z,102100.06
2022-10-28T18:35:41.332Z,102088.09
2022-10-28T18:38:12.161Z,102085.75
2022-10-28T18:40:49.372Z,102082.16
2022-10-28T18:43:21.731Z,102076.41
2022-10-28T18:45:51.941Z,102081.16
2022-10-28T18:48:22.685Z,102081.59
2022-10-28T18:50:58.424Z,102067.03
2022-10-28T18:53:34.746Z,102076.66
2022-10-28T18:56:27.682Z,102093.47
2022-10-28T18:59:00.638Z,102093.06
2022-10-28T19:01:32.727Z,102101.38
2022-10-28T19:04:09.160Z,102098.13
2022-10-28T19:06:55.039Z,102103.22
2022-10-28T19:09:40.200Z,102108.44
2022-10-28T19:15:29.848Z,102109.66
2022-10-28T19:18:05.963Z,102111.09
2022-10-28T19:20:39.288Z,102114.88
2022-10-28T19:23:12.812Z,102104.25
2022-10-28T19:25:47.176Z,102113.56
2022-10-28T19:28:22.134Z,102114.66
2022-10-28T19:31:03.292Z,102119.47
2022-10-28T19:33:35.004Z,102116.63
2022-10-28T19:36:10.108Z,102123.47
2022-10-28T19:38:50.670Z,102125.41
2022-10-28T19:41:23.943Z,102127.03
2022-10-28T19:44:01.669Z,102129.13
2022-10-28T19:46:35.896Z,102130.31
2022-10-28T19:49:12.618Z,102132.47
2022-10-28T19:51:46.284Z,102146.38
2022-10-28T19:54:18.193Z,102149.72
2022-10-28T19:56:50.908Z,102147.63
2022-10-28T19:59:22.517Z,102158.56
2022-10-28T20:01:58.575Z,102156.47
2022-10-28T20:04:33.668Z,102157.88
2022-10-28T20:07:05.514Z,102160.09
2022-10-28T20:09:38.428Z,102175.28
2022-10-28T20:12:10.658Z,102180.28
2022-10-28T20:14:47.140Z,102193.38
2022-10-28T20:17:18.368Z,102196.28
2022-10-28T20:19:55.027Z,102193.63
2022-10-28T20:22:32.725Z,102200.00
2022-10-28T20:25:16.933Z,102199.41
2022-10-28T20:27:53.992Z,102204.47
2022-10-28T20:30:26.930Z,102213.19
2022-10-28T20:33:01.505Z,102209.97
2022-10-28T20:35:35.359Z,102201.97
2022-10-28T20:40:36.829Z,102197.22
2022-10-28T20:43:05.204Z,102201.09
2022-10-28T20:45:35.820Z,102203.03
2022-10-28T20:48:04.353Z,102206.03
2022-10-28T20:50:33.702Z,102204.13
2022-10-28T20:53:04.423Z,102203.63
2022-10-28T20:55:34.869Z,102211.06
2022-10-28T20:58:03.695Z,102213.66
2022-10-28T21:00:32.648Z,102208.25
2022-10-28T21:03:03.647Z,102214.16
2022-10-28T21:05:35.173Z,102206.63
2022-10-28T21:13:52.477Z,102232.91
2022-10-28T21:16:23.120Z,102227.88
2022-10-28T21:18:54.670Z,102221.09
2022-10-28T21:21:25.931Z,102224.56
2022-10-28T21:23:55.815Z,102222.25
2022-10-28T21:26:27.495Z,102224.25
2022-10-28T21:28:58.138Z,102226.75
2022-10-28T21:31:27.969Z,102223.06
2022-10-28T21:34:00.734Z,102250.78
2022-10-28T21:36:32.886Z,102244.59
2022-10-28T21:39:02.795Z,102252.59
2022-10-28T21:41:32.679Z,102235.31
2022-10-28T21:44:05.934Z,102225.56
2022-10-28T21:46:36.625Z,102224.50
2022-10-28T21:49:06.596Z,102222.09
2022-10-28T21:51:36.533Z,102220.34
2022-10-28T21:54:05.695Z,102220.44
2022-10-28T21:56:38.789Z,102223.91
2022-10-28T21:59:10.476Z,102226.03
2022-10-28T22:01:39.426Z,102225.31
2022-10-28T22:04:09.957Z,102229.22
2022-10-28T22:06:39.133Z,102229.41
2022-10-28T22:09:08.763Z,102227.94
2022-10-28T22:11:37.909Z,102234.31
2022-10-28T22:14:09.457Z,102238.25
2022-10-28T22:16:38.347Z,102228.75
2022-10-28T22:19:09.951Z,102236.84
2022-10-28T22:21:40.643Z,102232.78
2022-10-28T22:24:10.901Z,102240.19
2022-10-28T22:26:39.643Z,102246.66
2022-10-28T22:29:10.054Z,102239.41
2022-10-28T22:31:38.661Z,102249.59
2022-10-28T22:34:07.835Z,102247.16
2022-10-28T22:36:39.356Z,102257.38
2022-10-28T22:39:08.998Z,102249.34
2022-10-28T22:41:37.938Z,102259.44
2022-10-28T22:44:07.817Z,102271.19
2022-10-28T22:46:37.164Z,102267.38
2022-10-28T22:49:06.821Z,102260.47
2022-10-28T22:51:43.166Z,102267.38
2022-10-28T22:54:12.057Z,102263.44
2022-10-28T22:56:45.517Z,102250.72
2022-10-28T22:59:15.975Z,102256.84
2022-10-28T23:01:44.835Z,102280.97
2022-10-28T23:04:16.725Z,102281.72
2022-10-28T23:06:46.650Z,102297.25
2022-10-28T23:09:20.547Z,102299.44
2022-10-28T23:11:49.166Z,102275.66
2022-10-28T23:14:18.182Z,102268.31
2022-10-28T23:16:48.445Z,102270.97
2022-10-28T23:19:17.245Z,102272.69
2022-10-28T23:21:50.968Z,102270.06
2022-10-28T23:24:20.377Z,102276.59
2022-10-28T23:26:48.765Z,102258.59
2022-10-28T23:29:19.163Z,102258.31
2022-10-28T23:31:49.025Z,102261.97
2022-10-28T23:34:21.870Z,102264.94
2022-10-28T23:36:54.247Z,102265.03
2022-10-28T23:39:22.924Z,102266.69
2022-10-28T23:41:51.941Z,102269.03
2022-10-28T23:44:21.078Z,102268.19
2022-10-28T23:46:49.524Z,102270.69
2022-10-28T23:49:17.875Z,102276.19
2022-10-28T23:51:48.742Z,102267.19
2022-10-28T23:54:19.712Z,102270.88
2022-10-28T23:56:49.127Z,102276.69
2022-10-28T23:59:19.865Z,102290.13
